Time;durP1;ratioP1;P1;durP2;ratioP2;P2;SDS_P1;SDS_P2;PMS_P1;PMS_P2;Temp;Humidity;BMP_temperature;BMP_pressure;BME280_temperature;BME280_humidity;BME280_pressure;Samples;Min_cycle;Max_cycle;Signal;HPM_P1;HPM_P2
2024/02/08 00:00:10;;;;;;;4.55;3.50;;;15.80;56.60;;;;;;5053152;28;20171;-70
2024/02/08 00:02:41;;;;;;;4.53;3.70;;;15.70;56.70;;;;;;5051929;28;20221;-71
2024/02/08 00:05:08;;;;;;;6.00;3.85;;;15.80;56.70;;;;;;5052909;28;20663;-71
2024/02/08 00:07:33;;;;;;;4.32;3.55;;;15.70;56.60;;;;;;5052667;28;20210;-71
2024/02/08 00:09:59;;;;;;;5.07;3.75;;;15.70;56.70;;;;;;5052242;28;20214;-72
2024/02/08 00:12:25;;;;;;;4.47;3.15;;;15.70;56.70;;;;;;5052695;28;20171;-72
2024/02/08 00:14:50;;;;;;;4.57;3.58;;;15.70;56.70;;;;;;5052650;28;20678;-72
2024/02/08 00:17:22;;;;;;;4.75;3.60;;;15.70;56.80;;;;;;5051637;28;20171;-71
2024/02/08 00:19:50;;;;;;;4.47;3.30;;;15.70;56.80;;;;;;5052693;28;20183;-70
2024/02/08 00:22:20;;;;;;;4.80;3.13;;;15.60;56.70;;;;;;5052300;28;20175;-69
2024/02/08 00:24:46;;;;;;;5.45;2.97;;;15.60;56.70;;;;;;5052075;28;20555;-69
2024/02/08 00:27:11;;;;;;;4.82;3.28;;;15.60;56.60;;;;;;5052450;28;20661;-69
2024/02/08 00:29:41;;;;;;;4.00;3.15;;;15.60;56.60;;;;;;5052256;28;20179;-70
2024/02/08 00:32:07;;;;;;;5.68;3.08;;;15.60;56.70;;;;;;5051741;28;20213;-69
2024/02/08 00:34:33;;;;;;;4.13;2.90;;;15.60;56.60;;;;;;5051899;28;20202;-71
2024/02/08 00:36:59;;;;;;;4.35;3.10;;;15.50;56.60;;;;;;5052329;28;20254;-71
2024/02/08 00:39:24;;;;;;;5.53;3.17;;;15.50;56.60;;;;;;5051517;28;20523;-71
2024/02/08 00:41:50;;;;;;;3.47;2.78;;;15.60;56.70;;;;;;5051638;28;20167;-71
2024/02/08 00:44:18;;;;;;;4.70;2.80;;;15.60;56.70;;;;;;5051611;28;20268;-71
2024/02/08 00:46:44;;;;;;;4.25;2.53;;;15.50;56.70;;;;;;5052211;28;20274;-72
2024/02/08 00:49:10;;;;;;;4.60;3.13;;;15.50;56.70;;;;;;5052221;28;20255;-71
2024/02/08 00:51:35;;;;;;;4.88;2.92;;;15.50;56.70;;;;;;5051391;28;20209;-72
2024/02/08 00:54:01;;;;;;;5.55;2.72;;;15.50;56.70;;;;;;5052301;28;20191;-71
2024/02/08 00:56:27;;;;;;;4.93;3.10;;;15.50;56.60;;;;;;5051927;28;20183;-69
2024/02/08 00:58:52;;;;;;;3.97;2.63;;;15.50;56.70;;;;;;5051710;28;20541;-70
2024/02/08 01:01:18;;;;;;;3.38;2.63;;;15.50;56.60;;;;;;5051486;28;20633;-69
2024/02/08 01:03:44;;;;;;;3.85;2.80;;;15.50;56.70;;;;;;5052049;28;20178;-71
2024/02/08 01:06:10;;;;;;;3.17;2.53;;;15.50;56.70;;;;;;5051515;28;20185;-71
2024/02/08 01:08:36;;;;;;;3.97;2.85;;;15.50;56.60;;;;;;5051690;28;20171;-72
2024/02/08 01:11:02;;;;;;;4.53;2.65;;;15.40;56.60;;;;;;5052061;28;20241;-72
2024/02/08 01:13:28;;;;;;;3.53;2.58;;;15.40;56.60;;;;;;5051048;28;20626;-71
2024/02/08 01:15:53;;;;;;;3.08;2.28;;;15.40;56.50;;;;;;5051932;28;20301;-70
2024/02/08 01:18:20;;;;;;;4.00;2.33;;;15.40;56.50;;;;;;5051438;28;20258;-70
2024/02/08 01:20:46;;;;;;;4.20;2.70;;;15.40;56.50;;;;;;5051400;28;20183;-70
2024/02/08 01:23:12;;;;;;;3.00;2.42;;;15.40;56.50;;;;;;5051744;28;20541;-69
2024/02/08 01:25:41;;;;;;;3.40;2.33;;;15.40;56.50;;;;;;5051323;28;20179;-69
2024/02/08 01:28:07;;;;;;;4.55;2.85;;;15.40;56.50;;;;;;5051141;28;20206;-70
2024/02/08 01:30:35;;;;;;;2.38;2.13;;;15.40;56.50;;;;;;5051549;28;20633;-69
2024/02/08 01:33:01;;;;;;;4.03;2.30;;;15.40;56.50;;;;;;5051718;28;20179;-71
2024/02/08 01:35:26;;;;;;;4.18;2.47;;;15.40;56.50;;;;;;5050860;28;20305;-72
2024/02/08 01:37:53;;;;;;;5.72;2.40;;;15.40;56.50;;;;;;5051969;28;20262;-71
2024/02/08 01:40:19;;;;;;;4.07;2.50;;;15.30;56.50;;;;;;5051086;28;20670;-72
2024/02/08 01:42:46;;;;;;;2.83;2.53;;;15.30;56.50;;;;;;5051323;28;20199;-71
2024/02/08 01:45:34;;;;;;;3.50;2.40;;;15.30;56.40;;;;;;5051682;28;20183;-72
2024/02/08 01:48:10;;;;;;;5.00;2.72;;;15.30;56.40;;;;;;5051187;28;20242;-72
2024/02/08 01:51:04;;;;;;;4.13;2.13;;;15.30;56.40;;;;;;5051244;28;20618;-71
2024/02/08 01:53:32;;;;;;;2.53;2.08;;;15.30;56.40;;;;;;5051670;28;20198;-72
2024/02/08 01:55:59;;;;;;;3.03;2.05;;;15.30;56.40;;;;;;5054652;28;20219;-70
2024/02/08 01:58:26;;;;;;;3.25;2.22;;;15.30;56.40;;;;;;5054951;28;20642;-70
2024/02/08 02:00:52;;;;;;;3.85;2.28;;;15.30;56.30;;;;;;5054266;28;20186;-69
2024/02/08 02:03:19;;;;;;;2.88;2.03;;;15.30;56.40;;;;;;5053299;28;20179;-69
2024/02/08 02:05:46;;;;;;;3.75;2.08;;;15.30;56.50;;;;;;5055272;28;20193;-70
2024/02/08 02:08:24;;;;;;;3.63;2.45;;;15.30;56.40;;;;;;5055275;28;20175;-71
2024/02/08 02:11:06;;;;;;;4.05;2.13;;;15.20;56.30;;;;;;5053193;28;20717;-72
2024/02/08 02:13:36;;;;;;;3.60;2.20;;;15.20;56.40;;;;;;5053750;28;20174;-71
2024/02/08 02:16:01;;;;;;;3.67;1.90;;;15.20;56.40;;;;;;5053033;28;20214;-70
2024/02/08 02:18:31;;;;;;;3.10;1.80;;;15.20;56.40;;;;;;5053521;28;20270;-73
2024/02/08 02:20:57;;;;;;;2.03;1.83;;;15.20;56.40;;;;;;5055024;28;20194;-69
2024/02/08 02:23:22;;;;;;;2.42;2.00;;;15.20;56.40;;;;;;5054077;28;20262;-69
2024/02/08 02:25:48;;;;;;;3.55;1.88;;;15.20;56.40;;;;;;5053505;28;20171;-68
2024/02/08 02:28:13;;;;;;;3.22;1.85;;;15.20;56.40;;;;;;5053735;28;20182;-69
2024/02/08 02:30:40;;;;;;;1.95;1.65;;;15.20;56.40;;;;;;5036088;28;20171;-70
2024/02/08 02:33:05;;;;;;;2.85;1.98;;;15.20;56.40;;;;;;5054795;28;20209;-70
2024/02/08 02:35:31;;;;;;;2.45;1.67;;;15.20;56.40;;;;;;5052915;28;20207;-72
2024/02/08 02:38:02;;;;;;;3.55;1.60;;;15.20;56.40;;;;;;5052937;28;20172;-70
2024/02/08 02:40:30;;;;;;;2.85;1.92;;;15.20;56.50;;;;;;5054458;28;20187;-71
2024/02/08 02:42:55;;;;;;;2.17;1.70;;;15.20;56.40;;;;;;5054652;28;20258;-71
2024/02/08 02:45:28;;;;;;;3.15;2.17;;;15.10;56.40;;;;;;5053570;28;20377;-71
2024/02/08 02:47:54;;;;;;;4.20;2.17;;;15.10;56.40;;;;;;5054454;28;20198;-71
2024/02/08 02:50:21;;;;;;;1.75;1.52;;;15.10;56.40;;;;;;5054175;28;20641;-74
2024/02/08 02:52:47;;;;;;;3.05;1.80;;;15.10;56.40;;;;;;5053679;28;20765;-72
2024/02/08 02:55:13;;;;;;;2.88;1.75;;;15.10;56.40;;;;;;5054351;28;20249;-70
2024/02/08 02:57:41;;;;;;;3.13;1.70;;;15.10;56.40;;;;;;5053625;28;20304;-70
2024/02/08 03:00:20;;;;;;;5.03;2.28;;;15.10;56.50;;;;;;5053830;28;20208;-69
2024/02/08 03:02:48;;;;;;;2.30;1.70;;;15.10;56.40;;;;;;5054185;28;20229;-70
2024/02/08 03:05:13;;;;;;;2.65;1.88;;;15.10;56.40;;;;;;5052530;28;20204;-71
2024/02/08 03:07:42;;;;;;;2.97;1.90;;;15.10;56.30;;;;;;5053875;28;20168;-71
2024/02/08 03:10:11;;;;;;;2.40;1.98;;;15.10;56.40;;;;;;5054134;28;20191;-72
2024/02/08 03:12:40;;;;;;;3.28;2.03;;;15.10;56.40;;;;;;5052976;28;20183;-72
2024/02/08 03:15:09;;;;;;;4.30;1.90;;;15.10;56.40;;;;;;5053888;28;20211;-71
2024/02/08 03:17:38;;;;;;;3.15;1.77;;;15.10;56.40;;;;;;5053809;28;20195;-70
2024/02/08 03:20:05;;;;;;;4.55;1.95;;;15.00;56.40;;;;;;5053401;28;20187;-70
2024/02/08 03:22:34;;;;;;;3.20;1.85;;;15.00;56.40;;;;;;5053481;28;20175;-69
2024/02/08 03:25:04;;;;;;;2.47;1.73;;;14.90;56.40;;;;;;5053736;28;20184;-69
2024/02/08 03:27:33;;;;;;;2.83;1.58;;;15.00;56.40;;;;;;5052724;28;20297;-69
2024/02/08 03:30:00;;;;;;;1.73;1.30;;;15.00;56.40;;;;;;5053548;28;20175;-69
2024/02/08 03:32:27;;;;;;;2.97;1.67;;;15.00;56.30;;;;;;5053550;28;20171;-70
2024/02/08 03:34:53;;;;;;;2.90;1.67;;;15.00;56.30;;;;;;5052968;28;20214;-72
2024/02/08 03:37:20;;;;;;;2.60;1.60;;;15.00;56.40;;;;;;5053252;28;20186;-71
2024/02/08 03:39:46;;;;;;;2.42;1.58;;;15.00;56.40;;;;;;5053516;28;20178;-72
2024/02/08 03:42:14;;;;;;;2.67;1.73;;;15.00;56.30;;;;;;5052596;28;20175;-72
2024/02/08 03:44:39;;;;;;;2.72;1.55;;;15.00;56.40;;;;;;5053296;28;20179;-72
2024/02/08 03:47:07;;;;;;;2.70;1.55;;;15.00;56.40;;;;;;5052792;28;20545;-73
2024/02/08 03:49:36;;;;;;;3.08;1.45;;;15.00;56.30;;;;;;5053119;28;20179;-72
2024/02/08 03:52:02;;;;;;;2.95;1.67;;;15.00;56.30;;;;;;5053257;28;20264;-72
2024/02/08 03:54:31;;;;;;;2.85;1.58;;;15.00;56.30;;;;;;5052081;28;20229;-72
2024/02/08 03:57:00;;;;;;;2.70;1.70;;;14.90;56.30;;;;;;5052809;28;20218;-70
2024/02/08 03:59:26;;;;;;;3.05;1.63;;;14.90;56.40;;;;;;5052630;28;20648;-70
2024/02/08 04:02:03;;;;;;;2.97;1.50;;;14.90;56.40;;;;;;5052536;28;20187;-70
2024/02/08 04:05:05;;;;;;;3.65;1.38;;;14.90;56.30;;;;;;5052635;28;20637;-71
2024/02/08 04:10:19;;;;;;;2.42;1.67;;;14.90;56.30;;;;;;5052112;28;20198;-72
2024/02/08 04:53:55;;;;;;;2.00;1.35;;;14.80;56.30;;;;;;5052127;28;20664;-72
2024/02/08 04:56:21;;;;;;;2.55;1.55;;;14.80;56.20;;;;;;5051828;28;20218;-72
2024/02/08 04:58:50;;;;;;;2.50;1.35;;;14.80;56.30;;;;;;5051228;28;20238;-71
2024/02/08 05:01:20;;;;;;;2.28;1.40;;;14.80;56.30;;;;;;5051726;28;20277;-71
2024/02/08 05:03:46;;;;;;;2.35;1.52;;;14.80;56.30;;;;;;5052204;28;20250;-72
2024/02/08 05:06:15;;;;;;;3.63;1.65;;;14.80;56.30;;;;;;5051438;28;20262;-71
2024/02/08 05:08:44;;;;;;;2.95;1.45;;;14.80;56.30;;;;;;5051681;28;20664;-73
2024/02/08 05:11:10;;;;;;;4.10;2.03;;;14.70;56.20;;;;;;5052031;28;20179;-72
2024/02/08 05:13:42;;;;;;;2.38;1.50;;;14.70;56.30;;;;;;5050846;28;20206;-73
2024/02/08 05:16:17;;;;;;;2.33;1.40;;;14.70;56.30;;;;;;5051914;28;20305;-71
2024/02/08 05:18:46;;;;;;;3.75;1.73;;;14.70;56.20;;;;;;5051012;28;20167;-72
2024/02/08 05:21:13;;;;;;;2.15;1.33;;;14.70;56.20;;;;;;5051957;28;20187;-71
2024/02/08 05:23:40;;;;;;;1.40;1.17;;;14.70;56.20;;;;;;5051586;28;20171;-70
2024/02/08 05:26:08;;;;;;;1.73;1.48;;;14.70;56.30;;;;;;5050923;28;20692;-71
2024/02/08 05:28:33;;;;;;;1.90;1.38;;;14.70;56.30;;;;;;5054783;28;20183;-71
2024/02/08 05:30:59;;;;;;;2.88;1.58;;;14.70;56.20;;;;;;5056089;28;20262;-71
2024/02/08 05:33:29;;;;;;;2.38;1.63;;;14.70;56.20;;;;;;5055331;28;20186;-72
2024/02/08 05:35:56;;;;;;;2.60;1.40;;;14.70;56.30;;;;;;5055860;28;20221;-73
2024/02/08 05:38:23;;;;;;;4.20;1.67;;;14.70;56.30;;;;;;5056059;28;20175;-73
2024/02/08 05:40:51;;;;;;;3.13;1.55;;;14.70;56.20;;;;;;5055337;28;20201;-72
2024/02/08 05:43:27;;;;;;;1.75;1.38;;;14.70;56.30;;;;;;5055544;28;20186;-72
2024/02/08 05:45:53;;;;;;;3.33;1.67;;;14.70;56.30;;;;;;5056163;28;20179;-73
2024/02/08 05:48:19;;;;;;;2.05;1.60;;;14.70;56.30;;;;;;5054666;28;20186;-73
2024/02/08 05:50:44;;;;;;;1.73;1.30;;;14.70;56.30;;;;;;5055383;28;20175;-73
2024/02/08 05:53:15;;;;;;;2.45;1.30;;;14.70;56.20;;;;;;5055446;28;20195;-72
2024/02/08 05:55:47;;;;;;;2.40;1.55;;;14.70;56.10;;;;;;5054498;28;20215;-71
2024/02/08 05:58:18;;;;;;;2.47;1.27;;;14.80;56.00;;;;;;5055164;28;20237;-71
2024/02/08 06:00:52;;;;;;;1.30;1.20;;;14.90;55.90;;;;;;5054809;28;20171;-71
2024/02/08 06:03:37;;;;;;;3.83;1.60;;;15.00;55.70;;;;;;5054917;28;20179;-71
2024/02/08 06:06:06;;;;;;;2.70;1.40;;;15.10;55.70;;;;;;5055193;28;20301;-71
2024/02/08 06:08:41;;;;;;;2.88;1.45;;;15.20;55.70;;;;;;5054369;28;20190;-72
2024/02/08 06:11:16;;;;;;;2.60;1.40;;;15.30;55.60;;;;;;5055194;28;20182;-72
2024/02/08 06:13:50;;;;;;;2.13;1.33;;;15.40;55.60;;;;;;5055017;28;20650;-72
2024/02/08 06:16:26;;;;;;;3.05;1.48;;;15.40;55.40;;;;;;5054136;28;20261;-71
2024/02/08 06:19:02;;;;;;;2.60;1.20;;;15.60;55.30;;;;;;5054924;28;20626;-72
2024/02/08 06:21:40;;;;;;;1.92;1.30;;;15.60;55.20;;;;;;5054754;28;20183;-70
2024/02/08 06:26:58;;;;;;;2.88;1.80;;;15.90;54.80;;;;;;5054803;28;20213;-70
2024/02/08 06:29:43;;;;;;;2.05;1.50;;;15.90;54.70;;;;;;5053935;28;20308;-70
2024/02/08 06:37:46;;;;;;;1.75;1.33;;;16.00;54.50;;;;;;5053937;28;20206;-72
2024/02/08 07:37:25;;;;;;;3.05;1.83;;;17.40;53.00;;;;;;5053259;28;20278;-72
2024/02/08 07:40:00;;;;;;;1.75;1.65;;;17.40;53.00;;;;;;5052636;28;20258;-72
2024/02/08 07:42:29;;;;;;;3.17;1.58;;;17.30;53.00;;;;;;5053311;28;20205;-72
2024/02/08 07:44:57;;;;;;;2.63;1.70;;;17.30;53.20;;;;;;5053272;28;20175;-72
2024/02/08 07:47:33;;;;;;;2.45;1.83;;;17.20;53.40;;;;;;5052260;28;20674;-72
2024/02/08 07:50:04;;;;;;;3.40;1.83;;;17.20;53.50;;;;;;5053008;28;20174;-71
2024/02/08 07:52:45;;;;;;;2.30;1.75;;;17.20;53.60;;;;;;5053182;28;20167;-71
2024/02/08 07:55:14;;;;;;;2.30;1.60;;;17.20;53.60;;;;;;5052103;28;20199;-71
2024/02/08 07:57:50;;;;;;;3.90;1.80;;;17.20;53.60;;;;;;5052673;28;20238;-71
2024/02/08 08:03:00;;;;;;;2.92;1.80;;;17.20;53.70;;;;;;5053352;28;20178;-73
2024/02/08 08:05:31;;;;;;;3.83;1.77;;;17.20;53.80;;;;;;5052666;28;20175;-73
2024/02/08 08:08:01;;;;;;;2.40;1.63;;;17.20;54.00;;;;;;5052165;28;20210;-72
2024/02/08 08:10:33;;;;;;;2.97;1.70;;;17.20;54.10;;;;;;5052522;28;20175;-73
2024/02/08 08:13:06;;;;;;;3.17;1.92;;;17.20;54.20;;;;;;5052830;28;20677;-74
2024/02/08 08:15:35;;;;;;;3.72;2.13;;;17.30;54.50;;;;;;5051579;28;20222;-72
2024/02/08 08:18:02;;;;;;;3.33;1.85;;;17.20;54.40;;;;;;5052495;28;20584;-73
2024/02/08 08:20:56;;;;;;;3.63;2.28;;;17.30;54.60;;;;;;5052477;28;20266;-72
2024/02/08 08:23:28;;;;;;;3.53;2.03;;;17.20;54.50;;;;;;5051667;28;20630;-73
2024/02/08 08:26:00;;;;;;;3.65;2.20;;;17.30;54.70;;;;;;5052770;28;20261;-71
2024/02/08 08:31:00;;;;;;;3.75;2.28;;;17.30;54.90;;;;;;5052634;28;20232;-74
2024/02/08 08:36:28;;;;;;;4.05;2.15;;;17.30;55.00;;;;;;5051643;28;20210;-74
2024/02/08 08:39:41;;;;;;;2.92;2.17;;;17.30;55.00;;;;;;5037506;28;20202;-75
2024/02/08 08:41:45;;;;;;;3.75;1.95;;;17.30;55.00;;;;;;5051816;28;20190;-74
2024/02/08 08:44:10;;;;;;;2.95;1.92;;;17.30;55.10;;;;;;5051719;28;20167;-74
2024/02/08 08:46:38;;;;;;;3.55;2.03;;;17.30;55.10;;;;;;5052025;28;20171;-73
2024/02/08 08:49:03;;;;;;;3.88;2.28;;;17.30;55.10;;;;;;5052289;28;20183;-73
2024/02/08 08:51:30;;;;;;;3.45;1.70;;;17.30;55.30;;;;;;5051090;28;20190;-74
2024/02/08 08:54:13;;;;;;;3.25;2.30;;;17.30;55.30;;;;;;5052034;28;20187;-76
2024/02/08 08:56:40;;;;;;;3.53;1.92;;;17.30;55.10;;;;;;5050350;28;20264;-75
2024/02/08 08:59:06;;;;;;;4.72;2.15;;;17.30;55.40;;;;;;5051925;28;20187;-73
2024/02/08 09:01:36;;;;;;;3.63;2.10;;;17.20;55.40;;;;;;5049163;28;20183;-73
2024/02/08 09:04:22;;;;;;;3.90;2.20;;;17.20;55.70;;;;;;5049862;28;20634;-74
2024/02/08 09:06:48;;;;;;;4.70;2.42;;;17.20;55.30;;;;;;5051695;28;20183;-73
2024/02/08 09:09:28;;;;;;;3.65;2.38;;;17.10;55.60;;;;;;5051692;28;20171;-73
2024/02/08 09:11:59;;;;;;;3.45;1.95;;;17.10;55.60;;;;;;5051329;28;20174;-73
2024/02/08 09:14:30;;;;;;;4.45;2.30;;;17.00;55.60;;;;;;5051631;28;20221;-73
2024/02/08 09:17:02;;;;;;;5.13;2.10;;;17.00;55.60;;;;;;5051970;28;20693;-72
2024/02/08 09:19:28;;;;;;;4.68;1.77;;;17.00;55.60;;;;;;5050907;28;20197;-73
2024/02/08 09:21:58;;;;;;;3.80;2.55;;;17.00;55.60;;;;;;5051928;28;20175;-74
2024/02/08 09:24:26;;;;;;;5.07;2.10;;;17.00;55.70;;;;;;5051551;28;20533;-73
2024/02/08 09:27:01;;;;;;;2.97;1.80;;;17.00;55.60;;;;;;5051350;28;20171;-73
2024/02/08 09:29:26;;;;;;;3.63;1.95;;;17.10;55.70;;;;;;5051427;28;20312;-73
2024/02/08 09:31:57;;;;;;;4.30;2.17;;;17.10;55.60;;;;;;5051078;28;20210;-72
2024/02/08 09:34:40;;;;;;;6.90;2.55;;;17.10;55.50;;;;;;5051291;28;20186;-71
2024/02/08 09:37:09;;;;;;;3.28;2.28;;;17.10;55.50;;;;;;5051654;28;20183;-73
2024/02/08 09:40:17;;;;;;;3.05;2.22;;;17.00;55.60;;;;;;5050573;28;20536;-73
2024/02/08 09:42:29;;;;;;;3.60;1.83;;;17.00;55.70;;;;;;5050982;28;20215;-73
2024/02/08 09:45:18;;;;;;;2.28;1.63;;;16.90;55.70;;;;;;5051666;28;20236;-72
2024/02/08 09:47:51;;;;;;;3.08;2.10;;;16.80;55.80;;;;;;5050873;28;20674;-72
2024/02/08 09:50:21;;;;;;;3.30;1.90;;;16.80;55.80;;;;;;5051696;28;20268;-71
2024/02/08 09:52:56;;;;;;;2.83;2.05;;;16.80;56.00;;;;;;5049602;28;20186;-71
2024/02/08 09:55:32;;;;;;;3.05;1.95;;;16.80;55.80;;;;;;5049923;28;20700;-73
2024/02/08 09:58:04;;;;;;;4.10;1.83;;;16.80;55.90;;;;;;5050364;28;20230;-74
2024/02/08 10:00:44;;;;;;;2.80;1.70;;;16.80;55.80;;;;;;5033564;28;20541;-73
2024/02/08 10:03:13;;;;;;;3.63;2.20;;;16.80;55.90;;;;;;5035817;28;20171;-73
2024/02/08 10:05:52;;;;;;;3.78;1.95;;;16.80;55.80;;;;;;5051008;28;20701;-74
2024/02/08 10:08:31;;;;;;;2.22;1.83;;;16.80;55.90;;;;;;5049078;28;20232;-74
2024/02/08 10:11:23;;;;;;;4.93;1.80;;;16.80;55.80;;;;;;5051462;28;20225;-73
2024/02/08 10:13:55;;;;;;;4.70;2.28;;;16.80;55.80;;;;;;5052646;28;20183;-74
2024/02/08 10:16:42;;;;;;;4.30;1.98;;;16.70;55.90;;;;;;5053817;28;20215;-73
2024/02/08 10:19:27;;;;;;;4.97;2.45;;;16.70;56.00;;;;;;5055117;28;20191;-74
2024/02/08 10:22:18;;;;;;;3.08;1.92;;;16.60;56.00;;;;;;5054308;28;20183;-74
2024/02/08 10:27:20;;;;;;;3.85;2.25;;;16.60;56.10;;;;;;5054919;28;20622;-73
2024/02/08 10:29:56;;;;;;;2.67;1.83;;;16.60;56.10;;;;;;5054003;28;20179;-74
2024/02/08 10:32:27;;;;;;;2.97;1.52;;;16.60;56.10;;;;;;5054569;28;20689;-71
2024/02/08 10:35:14;;;;;;;3.60;2.50;;;16.60;56.10;;;;;;5054380;28;20615;-72
2024/02/08 10:37:47;;;;;;;3.13;1.70;;;16.70;56.00;;;;;;5054339;28;20179;-73
2024/02/08 10:40:29;;;;;;;2.58;2.00;;;16.70;56.00;;;;;;5054334;28;20681;-74
2024/02/08 10:43:00;;;;;;;3.35;1.85;;;16.70;56.00;;;;;;5053934;28;20194;-73
2024/02/08 10:45:26;;;;;;;7.85;2.20;;;16.70;56.00;;;;;;5054723;28;20626;-74
2024/02/08 10:47:55;;;;;;;4.43;2.00;;;16.60;55.90;;;;;;5054494;28;20646;-72
2024/02/08 10:50:21;;;;;;;2.88;2.00;;;16.60;56.10;;;;;;5053479;28;20194;-72
2024/02/08 10:52:51;;;;;;;2.17;1.60;;;16.50;56.10;;;;;;5054411;28;20537;-72
2024/02/08 10:55:18;;;;;;;3.08;1.42;;;16.50;56.20;;;;;;5054118;28;20203;-73
2024/02/08 11:06:00;;;;;;;2.78;1.80;;;16.50;56.20;;;;;;5054003;28;20177;-74
2024/02/08 11:08:50;;;;;;;4.13;2.15;;;16.50;56.20;;;;;;5037966;28;20170;-73
2024/02/08 11:11:20;;;;;;;2.83;1.55;;;16.50;56.10;;;;;;5053274;28;20228;-73
2024/02/08 11:13:50;;;;;;;3.72;2.25;;;16.60;56.10;;;;;;5037031;28;20175;-73
2024/02/08 11:16:21;;;;;;;2.33;1.70;;;16.60;56.10;;;;;;5052556;28;20211;-72
2024/02/08 11:18:54;;;;;;;4.05;1.77;;;16.50;56.20;;;;;;5036348;28;20257;-73
2024/02/08 11:21:42;;;;;;;1.95;1.60;;;16.50;56.30;;;;;;5053732;28;20179;-73
2024/02/08 11:24:07;;;;;;;3.58;2.08;;;16.40;56.30;;;;;;5053062;28;20275;-73
2024/02/08 11:26:34;;;;;;;2.80;1.92;;;16.40;56.30;;;;;;5052830;28;20179;-73
2024/02/08 11:29:04;;;;;;;3.20;1.80;;;16.40;56.30;;;;;;5052599;28;20640;-72
2024/02/08 11:31:32;;;;;;;2.45;1.77;;;16.40;56.40;;;;;;5052986;28;20179;-72
2024/02/08 11:34:13;;;;;;;3.58;1.90;;;16.40;56.40;;;;;;5053849;28;20179;-72
2024/02/08 11:36:42;;;;;;;4.05;1.58;;;16.40;56.30;;;;;;5053407;28;20355;-72
2024/02/08 11:39:29;;;;;;;2.72;1.70;;;16.40;56.30;;;;;;5052934;28;20702;-74
2024/02/08 11:42:00;;;;;;;4.03;1.73;;;16.50;56.30;;;;;;5053822;28;20599;-73
2024/02/08 11:44:28;;;;;;;3.97;2.03;;;16.40;56.20;;;;;;5053058;28;20584;-72
2024/02/08 11:46:58;;;;;;;2.85;2.03;;;16.40;56.30;;;;;;5053009;28;20187;-73
2024/02/08 11:49:35;;;;;;;4.38;2.15;;;16.40;56.30;;;;;;5052170;28;20225;-71
2024/02/08 11:52:10;;;;;;;5.93;2.50;;;16.40;56.30;;;;;;5053369;28;20191;-70
2024/02/08 11:54:37;;;;;;;3.28;2.13;;;16.40;57.00;;;;;;5052320;28;20535;-70
2024/02/08 11:57:06;;;;;;;4.35;2.15;;;16.30;56.40;;;;;;5052865;28;20231;-71
2024/02/08 11:59:35;;;;;;;2.92;1.98;;;16.40;56.50;;;;;;5052195;28;20179;-71
2024/02/08 12:02:04;;;;;;;3.85;2.38;;;16.40;56.50;;;;;;5053014;28;20599;-69
2024/02/08 12:04:34;;;;;;;2.95;1.92;;;16.40;56.30;;;;;;5051543;28;20174;-74
2024/02/08 12:07:04;;;;;;;3.90;2.30;;;16.40;56.40;;;;;;5035171;28;20553;-74
2024/02/08 12:09:36;;;;;;;3.30;1.88;;;16.40;56.30;;;;;;5052878;28;20262;-69
2024/02/08 12:12:03;;;;;;;3.15;2.00;;;16.50;56.30;;;;;;5053043;28;20171;-69
2024/02/08 12:14:29;;;;;;;4.63;2.15;;;16.50;56.30;;;;;;5051742;28;20236;-68
2024/02/08 12:16:57;;;;;;;4.72;2.03;;;16.50;56.30;;;;;;5052879;28;20630;-68
2024/02/08 12:19:27;;;;;;;4.95;2.53;;;16.50;56.20;;;;;;5052378;28;20174;-69
2024/02/08 12:21:57;;;;;;;4.45;1.70;;;16.50;56.30;;;;;;5057672;28;20185;-69
2024/02/08 12:24:24;;;;;;;4.85;1.98;;;16.40;56.30;;;;;;5056207;28;20189;-70
2024/02/08 12:26:54;;;;;;;3.05;1.90;;;16.40;56.40;;;;;;5057698;28;20187;-69
2024/02/08 12:29:19;;;;;;;5.60;1.90;;;16.40;56.50;;;;;;5055914;28;20183;-69
2024/02/08 12:31:45;;;;;;;3.58;1.90;;;16.40;56.50;;;;;;5051511;28;20320;-68
2024/02/08 12:34:13;;;;;;;3.88;1.88;;;16.50;56.60;;;;;;5035075;28;20649;-68
2024/02/08 12:36:39;;;;;;;2.88;1.90;;;16.50;56.50;;;;;;5033317;28;20214;-69
2024/02/08 12:39:17;;;;;;;3.15;1.98;;;16.60;56.50;;;;;;5034775;28;20669;-70
2024/02/08 12:41:46;;;;;;;2.95;2.05;;;16.60;56.50;;;;;;5050922;28;20186;-70
2024/02/08 12:44:15;;;;;;;3.58;2.05;;;16.60;56.50;;;;;;5052272;28;20622;-69
2024/02/08 12:46:47;;;;;;;4.53;1.85;;;16.50;56.50;;;;;;5051492;28;20164;-74
2024/02/08 12:49:15;;;;;;;3.97;2.03;;;16.50;56.50;;;;;;5034751;28;20179;-69
2024/02/08 12:51:40;;;;;;;4.65;1.80;;;16.60;56.60;;;;;;5052010;28;20175;-71
2024/02/08 12:54:07;;;;;;;3.00;1.80;;;16.50;56.50;;;;;;5052211;28;20652;-71
2024/02/08 12:56:36;;;;;;;5.10;2.08;;;16.50;56.60;;;;;;5050632;28;20237;-70
2024/02/08 12:59:05;;;;;;;3.63;2.13;;;16.60;56.70;;;;;;5050962;28;20633;-70
2024/02/08 13:01:38;;;;;;;2.28;1.70;;;16.50;56.50;;;;;;5051016;28;20605;-69
2024/02/08 13:04:05;;;;;;;2.78;1.55;;;16.50;56.50;;;;;;5051337;28;20617;-71
2024/02/08 13:06:31;;;;;;;2.55;1.48;;;16.50;56.60;;;;;;5051313;28;20605;-71
2024/02/08 13:09:29;;;;;;;3.88;1.90;;;16.60;56.70;;;;;;5051117;28;20171;-71
2024/02/08 13:14:49;;;;;;;3.15;1.48;;;16.60;56.50;;;;;;5051204;28;20260;-69
2024/02/08 13:17:21;;;;;;;3.60;1.80;;;16.60;56.60;;;;;;5050390;28;20261;-70
2024/02/08 13:19:47;;;;;;;3.33;1.83;;;16.60;56.70;;;;;;5051683;28;20177;-69
2024/02/08 13:22:14;;;;;;;2.63;1.50;;;16.60;56.70;;;;;;5051264;28;20199;-69
2024/02/08 13:24:39;;;;;;;2.72;1.77;;;16.50;56.70;;;;;;5050539;28;20179;-69
2024/02/08 13:27:05;;;;;;;1.77;1.55;;;16.40;56.80;;;;;;5051688;28;20167;-69
2024/02/08 13:29:31;;;;;;;2.85;1.67;;;16.40;56.90;;;;;;5051109;28;20179;-69
2024/02/08 13:31:57;;;;;;;1.63;1.27;;;16.40;56.90;;;;;;5050347;28;20185;-69
2024/02/08 13:34:23;;;;;;;3.22;1.50;;;16.50;56.90;;;;;;5050883;28;20540;-70
2024/02/08 13:36:48;;;;;;;2.03;1.30;;;16.50;56.90;;;;;;5051494;28;20215;-71
2024/02/08 13:39:14;;;;;;;2.63;1.23;;;16.50;56.90;;;;;;5050841;28;20175;-71
2024/02/08 13:41:46;;;;;;;5.30;1.63;;;16.50;56.80;;;;;;5050295;28;20181;-70
2024/02/08 13:44:14;;;;;;;2.47;1.40;;;16.50;56.90;;;;;;5050600;28;20521;-71
2024/02/08 13:46:43;;;;;;;2.33;1.25;;;16.50;56.90;;;;;;5049470;28;20626;-72
2024/02/08 13:49:08;;;;;;;2.45;1.60;;;16.50;56.90;;;;;;5052876;28;20176;-71
2024/02/08 13:51:34;;;;;;;3.45;1.60;;;16.50;56.90;;;;;;5053635;28;20236;-71
2024/02/08 13:54:00;;;;;;;2.08;1.50;;;16.40;56.80;;;;;;5053745;28;20225;-71
2024/02/08 13:56:27;;;;;;;3.20;2.03;;;16.40;56.90;;;;;;5054852;28;20211;-71
2024/02/08 13:58:54;;;;;;;3.47;1.75;;;16.40;57.00;;;;;;5054097;28;20190;-72
2024/02/08 14:01:25;;;;;;;2.20;1.40;;;16.30;57.10;;;;;;5054497;28;20186;-69
2024/02/08 14:03:58;;;;;;;2.05;1.48;;;16.30;57.10;;;;;;5054800;28;20254;-68
2024/02/08 14:06:25;;;;;;;2.67;1.63;;;16.30;57.10;;;;;;5052120;28;20171;-69
2024/02/08 14:08:54;;;;;;;1.70;1.40;;;16.30;57.10;;;;;;5054862;28;20258;-69
2024/02/08 14:11:21;;;;;;;3.47;1.60;;;16.30;57.20;;;;;;5054632;28;20656;-68
2024/02/08 14:13:50;;;;;;;1.77;1.13;;;16.30;57.20;;;;;;5054713;28;20182;-68
2024/02/08 14:16:16;;;;;;;1.85;1.65;;;16.30;57.30;;;;;;5055038;28;20680;-68
2024/02/08 14:18:48;;;;;;;1.63;1.50;;;16.30;57.30;;;;;;5054879;28;20645;-69
2024/02/08 14:21:20;;;;;;;1.67;1.40;;;16.20;57.20;;;;;;5054446;28;20262;-69
2024/02/08 14:23:49;;;;;;;3.00;1.50;;;16.20;57.20;;;;;;5054907;28;20626;-68
2024/02/08 14:28:46;;;;;;;1.65;1.30;;;16.20;57.20;;;;;;5054253;28;20225;-68
2024/02/08 14:31:14;;;;;;;2.00;1.50;;;16.20;57.50;;;;;;5054672;28;20179;-68
2024/02/08 14:33:46;;;;;;;3.90;1.70;;;16.30;57.30;;;;;;5054547;28;20199;-68
2024/02/08 14:36:12;;;;;;;3.20;1.65;;;16.30;57.30;;;;;;5054106;28;20207;-70
2024/02/08 14:38:40;;;;;;;1.80;1.25;;;16.40;57.30;;;;;;5054375;28;20207;-69
2024/02/08 14:41:06;;;;;;;1.48;1.17;;;16.40;57.20;;;;;;5054285;28;20183;-69
2024/02/08 14:43:31;;;;;;;2.38;1.40;;;16.40;57.30;;;;;;5054761;28;20224;-70
2024/02/08 14:46:01;;;;;;;1.83;1.40;;;16.40;57.00;;;;;;5054746;28;20270;-68
2024/02/08 14:48:27;;;;;;;1.60;1.27;;;16.30;57.10;;;;;;5053405;28;20176;-69
2024/02/08 14:51:29;;;;;;;2.35;1.10;;;16.30;57.20;;;;;;5054483;28;20183;-69
2024/02/08 14:53:53;;;;;;;3.35;1.20;;;16.20;57.20;;;;;;5054271;28;20191;-69
2024/02/08 14:56:19;;;;;;;2.92;1.25;;;16.20;57.00;;;;;;5053172;28;20226;-71
2024/02/08 14:58:56;;;;;;;2.33;1.27;;;16.10;56.70;;;;;;5054110;28;20227;-70
2024/02/08 15:01:38;;;;;;;2.72;1.15;;;16.20;57.20;;;;;;5052927;28;20183;-70
2024/02/08 15:04:17;;;;;;;2.60;1.40;;;16.20;57.10;;;;;;5053772;28;20195;-69
2024/02/08 15:12:27;;;;;;;3.33;1.20;;;16.20;57.20;;;;;;5053444;28;20210;-69
2024/02/08 15:14:55;;;;;;;2.55;1.35;;;16.30;57.30;;;;;;5053266;28;20206;-69
2024/02/08 15:17:23;;;;;;;1.05;0.95;;;16.30;57.30;;;;;;5052697;28;20175;-73
2024/02/08 15:19:55;;;;;;;2.55;1.20;;;16.30;57.30;;;;;;5050860;28;20209;-71
2024/02/08 15:25:03;;;;;;;2.00;1.30;;;16.30;57.00;;;;;;5053344;28;20258;-70